Time;durP1;ratioP1;P1;durP2;ratioP2;P2;SDS_P1;SDS_P2;PMS_P1;PMS_P2;Temp;Humidity;BMP_temperature;BMP_pressure;BME280_temperature;BME280_humidity;BME280_pressure;Samples;Min_cycle;Max_cycle;Signal;HPM_P1;HPM_P2
2021/06/19 00:01:50;;;;;;;7.53;5.50;;;;;;;21.87;100.00;98772.56;10275221;29;20194;-85
2021/06/19 00:07:09;;;;;;;5.77;4.97;;;;;;;21.80;98.78;98775.75;10275152;28;20254;-85
2021/06/19 00:12:28;;;;;;;10.37;5.93;;;;;;;21.93;96.20;98773.44;10271271;29;20202;-86
2021/06/19 00:17:48;;;;;;;8.23;6.50;;;;;;;22.09;92.99;98780.59;10267433;29;20182;-87
2021/06/19 00:23:07;;;;;;;5.03;4.63;;;;;;;22.30;92.06;98779.41;10278238;29;20265;-85
2021/06/19 00:28:27;;;;;;;6.10;5.50;;;;;;;22.43;91.25;98779.91;10285773;29;20297;-84
2021/06/19 00:33:46;;;;;;;5.13;4.63;;;;;;;22.28;92.06;98785.53;10286085;29;20195;-84
2021/06/19 00:39:06;;;;;;;6.30;5.70;;;;;;;22.23;90.44;98803.00;10288311;29;20175;-84
2021/06/19 00:44:25;;;;;;;10.47;5.80;;;;;;;22.10;92.31;98790.53;10283432;29;20196;-84
2021/06/19 00:49:44;;;;;;;11.03;5.97;;;;;;;22.09;92.55;98797.41;10281519;29;20230;-83
2021/06/19 00:55:05;;;;;;;5.27;4.80;;;;;;;22.18;90.93;98800.88;10261204;29;20543;-84
2021/06/19 01:00:24;;;;;;;6.73;5.57;;;;;;;22.29;89.71;98798.28;10261604;29;20532;-85
2021/06/19 01:05:44;;;;;;;5.80;5.30;;;;;;;22.36;91.18;98797.13;10262946;29;20661;-84
2021/06/19 01:11:03;;;;;;;11.53;6.40;;;;;;;22.44;91.23;98813.09;10266549;29;20214;-83
2021/06/19 01:16:24;;;;;;;5.17;4.77;;;;;;;22.21;93.38;98805.50;10264516;28;20178;-83
2021/06/19 01:21:44;;;;;;;6.47;5.77;;;;;;;22.10;94.30;98821.34;10264960;29;20179;-84
2021/06/19 01:27:03;;;;;;;6.97;5.80;;;;;;;22.01;95.57;98832.66;10267127;29;20194;-84
2021/06/19 01:32:26;;;;;;;5.97;5.03;;;;;;;21.87;97.64;98834.19;10263391;28;20619;-85
2021/06/19 01:37:48;;;;;;;9.93;6.00;;;;;;;21.90;96.96;98841.63;10263861;29;20179;-84
2021/06/19 01:43:07;;;;;;;9.37;5.90;;;;;;;22.03;98.14;98839.34;10265773;29;20214;-84
2021/06/19 01:48:26;;;;;;;6.67;5.43;;;;;;;22.02;99.96;98839.78;10266711;29;20230;-84
2021/06/19 01:53:49;;;;;;;6.13;5.57;;;;;;;21.87;100.00;98847.41;10269463;29;20187;-84
2021/06/19 01:59:08;;;;;;;6.67;5.10;;;;;;;21.59;100.00;98845.31;10273071;29;20570;-84
2021/06/19 02:04:27;;;;;;;5.87;5.17;;;;;;;21.50;100.00;98839.75;10275333;29;20179;-84
2021/06/19 02:09:46;;;;;;;7.23;5.63;;;;;;;21.59;100.00;98842.50;10277216;29;20210;-84
2021/06/19 02:15:05;;;;;;;12.03;5.83;;;;;;;21.57;100.00;98843.00;10271198;29;20671;-84
2021/06/19 02:20:26;;;;;;;5.33;4.83;;;;;;;21.60;100.00;98830.84;10274526;29;20175;-85
2021/06/19 02:25:47;;;;;;;6.33;5.73;;;;;;;21.80;100.00;98828.97;10276702;28;20183;-86
2021/06/19 02:31:07;;;;;;;8.07;6.40;;;;;;;21.71;100.00;98837.44;10283187;28;20218;-86
2021/06/19 02:36:26;;;;;;;5.90;5.30;;;;;;;21.66;100.00;98848.53;10295144;29;20187;-86
2021/06/19 02:41:45;;;;;;;7.10;5.80;;;;;;;21.63;100.00;98845.91;10290652;29;20190;-84
2021/06/19 02:47:04;;;;;;;6.40;5.80;;;;;;;21.72;100.00;98852.22;10299954;29;20179;-84
2021/06/19 02:52:23;;;;;;;5.80;5.30;;;;;;;21.88;100.00;98852.56;10303524;29;20210;-84
2021/06/19 02:57:42;;;;;;;7.23;5.33;;;;;;;21.83;100.00;98856.00;10301014;29;20190;-84
2021/06/19 03:03:02;;;;;;;6.00;5.50;;;;;;;21.82;100.00;98859.28;10295383;29;20246;-83
2021/06/19 03:08:21;;;;;;;9.03;5.10;;;;;;;21.87;100.00;98851.00;10291728;29;20194;-83
2021/06/19 03:13:40;;;;;;;6.43;5.90;;;;;;;22.00;100.00;98856.34;10294897;29;20175;-83
2021/06/19 03:18:59;;;;;;;13.63;6.03;;;;;;;22.01;100.00;98881.06;10295430;29;20645;-84
2021/06/19 03:24:18;;;;;;;6.03;5.43;;;;;;;21.74;100.00;98878.47;10291653;29;20191;-85
2021/06/19 03:29:39;;;;;;;8.30;5.17;;;;;;;21.69;100.00;98862.34;10272569;29;20210;-84
2021/06/19 03:34:58;;;;;;;6.57;5.97;;;;;;;21.59;100.00;98853.72;10273441;28;20732;-84
2021/06/19 03:40:18;;;;;;;8.10;5.93;;;;;;;21.61;100.00;98865.22;10267469;28;20242;-84
2021/06/19 03:45:37;;;;;;;8.40;5.10;;;;;;;21.58;100.00;98852.16;10274421;29;20171;-83
2021/06/19 03:50:57;;;;;;;6.10;5.60;;;;;;;21.65;100.00;98865.81;10276390;29;20237;-84
2021/06/19 03:56:16;;;;;;;7.47;6.03;;;;;;;21.74;100.00;98866.50;10279075;29;20191;-84
2021/06/19 04:01:35;;;;;;;12.53;5.97;;;;;;;21.85;100.00;98878.72;10279119;29;20207;-84
2021/06/19 04:06:54;;;;;;;11.43;6.30;;;;;;;21.94;100.00;98873.03;10278439;29;20178;-84
2021/06/19 04:12:13;;;;;;;8.73;6.70;;;;;;;22.10;100.00;98903.41;10282638;29;20210;-84
2021/06/19 04:17:32;;;;;;;8.07;5.73;;;;;;;22.06;100.00;98896.44;10278559;29;20179;-84
2021/06/19 04:22:51;;;;;;;8.70;5.87;;;;;;;22.07;100.00;98904.34;10280167;29;20257;-87
2021/06/19 04:28:10;;;;;;;11.47;6.70;;;;;;;22.13;100.00;98901.66;10278657;28;20199;-86
2021/06/19 04:33:30;;;;;;;7.10;6.40;;;;;;;22.26;100.00;98902.94;10285064;28;20558;-86
2021/06/19 04:38:49;;;;;;;5.83;5.13;;;;;;;22.33;100.00;98904.63;10258240;29;20187;-86
2021/06/19 04:49:45;;;;;;;5.80;5.23;;;;;;;22.54;100.00;98887.41;10258932;28;20238;-84
2021/06/19 04:55:05;;;;;;;6.40;5.77;;;;;;;22.38;100.00;98904.69;10256409;29;20179;-84
2021/06/19 05:00:26;;;;;;;6.40;5.80;;;;;;;22.41;100.00;98897.38;10279553;29;20178;-82
2021/06/19 05:05:45;;;;;;;7.60;5.93;;;;;;;22.45;100.00;98900.75;10295722;29;20174;-84
2021/06/19 05:11:05;;;;;;;8.97;6.53;;;;;;;22.58;100.00;98916.03;10299436;28;20206;-83
2021/06/19 05:16:24;;;;;;;9.73;7.33;;;;;;;22.70;100.00;98924.16;10275827;29;20178;-86
2021/06/19 05:21:43;;;;;;;7.53;6.73;;;;;;;22.65;100.00;98932.47;10261778;29;20206;-87
2021/06/19 05:27:02;;;;;;;8.10;6.63;;;;;;;22.38;100.00;98935.53;10262562;29;20179;-84
2021/06/19 05:32:23;;;;;;;6.90;6.30;;;;;;;22.35;100.00;98953.34;10262013;28;20214;-85
2021/06/19 05:37:42;;;;;;;7.50;6.80;;;;;;;22.18;100.00;98965.44;10263419;29;20178;-84
2021/06/19 05:43:01;;;;;;;9.90;7.87;;;;;;;21.91;100.00;98966.41;10255616;29;20190;-84
2021/06/19 05:48:20;;;;;;;7.90;6.63;;;;;;;21.49;100.00;98950.16;10250769;29;20226;-84
2021/06/19 05:53:38;;;;;;;12.23;7.80;;;;;;;21.39;100.00;98943.09;10252505;29;20179;-83
2021/06/19 05:58:58;;;;;;;8.87;7.17;;;;;;;21.25;100.00;98982.94;10253083;28;20214;-81
2021/06/19 06:04:16;;;;;;;11.60;6.53;;;;;;;21.23;100.00;99005.06;10289373;28;20187;-82
2021/06/19 06:09:35;;;;;;;12.37;6.93;;;;;;;21.18;100.00;99003.66;10260134;29;20287;-82
2021/06/19 06:14:54;;;;;;;7.70;6.90;;;;;;;21.31;100.00;99007.03;10260187;28;20187;-81
2021/06/19 06:20:14;;;;;;;15.87;7.97;;;;;;;21.27;100.00;99006.44;10259529;29;20301;-81
2021/06/19 06:25:33;;;;;;;9.83;6.53;;;;;;;21.33;100.00;99004.53;10260276;29;20638;-82
2021/06/19 06:30:52;;;;;;;12.47;7.43;;;;;;;21.57;100.00;99010.97;10257474;28;20289;-83
2021/06/19 06:36:12;;;;;;;12.27;8.03;;;;;;;21.66;100.00;99013.72;10259879;29;20237;-84
2021/06/19 06:41:31;;;;;;;12.47;7.63;;;;;;;21.79;100.00;99015.06;10258127;29;20202;-82
2021/06/19 06:46:50;;;;;;;11.10;7.60;;;;;;;21.84;100.00;99017.19;10256707;29;20186;-83
2021/06/19 06:52:09;;;;;;;12.17;7.17;;;;;;;22.04;100.00;99009.00;10259378;29;20190;-82
2021/06/19 06:57:28;;;;;;;10.00;6.57;;;;;;;22.24;100.00;99014.75;10258602;29;20206;-83
2021/06/19 07:02:47;;;;;;;17.67;7.80;;;;;;;22.56;100.00;99006.25;10256973;29;20251;-82
2021/06/19 07:08:06;;;;;;;10.97;7.53;;;;;;;22.75;100.00;99026.47;10258688;29;20190;-83
2021/06/19 07:13:25;;;;;;;9.97;6.53;;;;;;;22.93;100.00;99029.88;10258061;28;20559;-82
2021/06/19 07:18:44;;;;;;;8.90;7.57;;;;;;;23.16;100.00;99043.06;10256891;29;20293;-83
2021/06/19 07:24:04;;;;;;;15.30;8.07;;;;;;;23.38;100.00;99038.59;10258093;29;20536;-83
2021/06/19 07:29:23;;;;;;;7.33;6.47;;;;;;;23.51;100.00;99025.00;10217293;29;20203;-84
2021/06/19 07:34:42;;;;;;;8.67;7.40;;;;;;;23.68;100.00;99022.47;10255661;29;20179;-84
2021/06/19 07:40:02;;;;;;;9.83;8.10;;;;;;;23.89;100.00;99022.03;10258879;29;20222;-84
2021/06/19 07:45:22;;;;;;;9.00;6.70;;;;;;;24.33;100.00;99025.41;10257504;29;20669;-84
2021/06/19 07:50:41;;;;;;;9.77;7.80;;;;;;;25.36;100.00;99019.38;10255684;29;20696;-84
2021/06/19 07:56:00;;;;;;;11.67;8.23;;;;;;;25.84;100.00;99021.03;10257302;29;20179;-84
2021/06/19 08:01:19;;;;;;;10.00;7.50;;;;;;;26.58;100.00;99017.56;10253954;29;20579;-83
2021/06/19 08:06:38;;;;;;;9.17;6.93;;;;;;;26.36;100.00;99019.50;10256679;29;20186;-84
2021/06/19 08:11:58;;;;;;;10.70;6.27;;;;;;;26.10;100.00;99010.41;10256336;29;20175;-85
2021/06/19 08:17:19;;;;;;;7.70;6.90;;;;;;;26.20;100.00;99018.16;10253140;29;20203;-84
2021/06/19 08:22:39;;;;;;;10.50;7.30;;;;;;;27.30;97.71;99013.56;10222899;29;20214;-84
2021/06/19 08:27:57;;;;;;;9.00;6.00;;;;;;;28.46;94.94;99010.03;10255966;28;20194;-85
2021/06/19 08:39:05;;;;;;;10.00;7.47;;;;;;;29.97;71.03;99002.25;10231814;28;20222;-86
2021/06/19 08:44:28;;;;;;;8.80;7.10;;;;;;;30.31;66.56;98992.78;10254099;29;20261;-86
2021/06/19 08:49:48;;;;;;;6.50;5.90;;;;;;;30.49;64.55;99000.59;10252451;29;20227;-85
2021/06/19 08:55:09;;;;;;;12.33;6.67;;;;;;;31.14;62.43;98989.59;10253760;29;20170;-87
2021/06/19 09:00:29;;;;;;;7.70;6.87;;;;;;;31.64;63.26;98985.41;10252111;29;20211;-86
2021/06/19 09:05:48;;;;;;;7.60;6.60;;;;;;;31.83;57.83;98985.31;10254870;29;20167;-85
2021/06/19 09:11:37;;;;;;;9.00;7.10;;;;;;;32.02;61.16;98977.44;10254196;29;20183;-86
2021/06/19 09:17:04;;;;;;;7.90;6.73;;;;;;;32.79;57.44;98979.47;10259737;28;20660;-86
2021/06/19 09:22:23;;;;;;;9.03;8.10;;;;;;;32.80;55.34;98978.91;10296513;28;20206;-84
2021/06/19 09:27:55;;;;;;;;;;;;;;;;;;;;;
2021/06/19 09:32:54;;;;;;;8.27;7.30;;;;;;;34.01;54.19;98970.16;10249172;23;20273;-84
2021/06/19 09:38:15;;;;;;;7.60;5.90;;;;;;;34.49;50.76;98975.78;10224194;28;20269;-84
2021/06/19 09:43:44;;;;;;;7.67;6.00;;;;;;;35.23;46.32;98967.47;10213676;29;20630;-84
2021/06/19 09:49:15;;;;;;;9.00;6.60;;;;;;;35.96;45.42;98961.59;10216790;29;20175;-84
2021/06/19 09:54:40;;;;;;;7.10;6.07;;;;;;;36.46;45.74;98967.06;10255301;29;20179;-84
2021/06/19 10:00:00;;;;;;;7.33;5.77;;;;;;;36.29;43.22;98971.84;10252159;29;21089;-84
2021/06/19 10:05:18;;;;;;;8.57;6.50;;;;;;;36.89;43.10;98973.19;10253026;29;20186;-83
2021/06/19 10:10:38;;;;;;;6.13;5.47;;;;;;;36.64;41.18;98974.41;10252325;29;20183;-83
2021/06/19 10:15:57;;;;;;;7.43;6.40;;;;;;;36.10;42.29;98968.66;10233159;29;20265;-86
2021/06/19 10:21:17;;;;;;;8.07;5.67;;;;;;;35.61;43.68;98956.84;10212757;29;20218;-85
2021/06/19 10:26:38;;;;;;;9.50;6.27;;;;;;;36.52;43.81;98959.00;10211834;29;20183;-84
2021/06/19 10:31:57;;;;;;;6.10;5.60;;;;;;;36.85;41.07;98949.84;10210324;29;20301;-84
2021/06/19 10:37:29;;;;;;;7.50;6.73;;;;;;;37.15;43.09;98940.31;10212931;29;20541;-86
2021/06/19 10:42:50;;;;;;;6.30;5.70;;;;;;;37.25;41.10;98924.72;10212427;29;20234;-84
2021/06/19 10:48:12;;;;;;;6.43;5.83;;;;;;;37.00;40.57;98923.19;10212983;29;20190;-86
2021/06/19 10:53:32;;;;;;;9.80;5.70;;;;;;;36.96;42.94;98917.88;10218748;29;20206;-85
2021/06/19 10:59:17;;;;;;;7.30;5.60;;;;;;;37.06;41.60;98903.63;10218481;29;20199;-84
2021/06/19 11:04:37;;;;;;;7.10;5.10;;;;;;;37.16;40.87;98899.53;10217255;29;20557;-85
2021/06/19 11:09:57;;;;;;;8.20;5.57;;;;;;;37.47;39.23;98892.25;10218386;29;20166;-85
2021/06/19 11:15:33;;;;;;;6.50;5.37;;;;;;;38.18;38.65;98894.75;10232078;29;20676;-85
2021/06/19 11:21:11;;;;;;;6.10;5.23;;;;;;;37.84;39.45;98882.53;10260294;29;20695;-84
2021/06/19 11:26:54;;;;;;;5.77;5.37;;;;;;;39.13;36.30;98870.28;10258941;29;20186;-84
2021/06/19 11:32:28;;;;;;;10.60;6.20;;;;;;;37.34;40.00;98868.84;10263596;29;20230;-83
2021/06/19 11:37:56;;;;;;;5.67;5.17;;;;;;;36.77;42.90;98857.34;10265130;29;20633;-84
2021/06/19 11:43:30;;;;;;;5.77;5.27;;;;;;;38.60;37.02;98835.78;10265372;29;20191;-85
2021/06/19 11:49:08;;;;;;;6.10;4.67;;;;;;;39.39;34.52;98812.63;10227772;29;20199;-84
2021/06/19 11:54:29;;;;;;;6.77;5.23;;;;;;;39.80;34.50;98820.13;10227256;29;20179;-84
2021/06/19 12:00:07;;;;;;;5.68;5.18;;;;;;;40.27;32.12;98805.72;10223766;29;20670;-85
2021/06/19 12:05:26;;;;;;;5.32;4.82;;;;;;;41.00;32.64;98793.06;10229385;29;20207;-84
2021/06/19 12:10:47;;;;;;;5.00;4.57;;;;;;;41.40;32.29;98798.03;10242334;29;20210;-83
2021/06/19 12:16:08;;;;;;;5.47;5.05;;;;;;;40.98;33.29;98787.16;10228396;29;20198;-84
2021/06/19 12:21:38;;;;;;;5.70;4.43;;;;;;;41.09;31.73;98794.41;10222169;29;20680;-83
2021/06/19 12:27:01;;;;;;;4.88;4.50;;;;;;;40.82;31.46;98788.13;10228147;29;20175;-83
2021/06/19 12:32:43;;;;;;;4.70;4.38;;;;;;;42.13;29.94;98791.53;10223025;29;20234;-83
2021/06/19 12:38:02;;;;;;;4.70;4.13;;;;;;;40.94;30.30;98786.13;10226750;29;20179;-83
2021/06/19 12:43:22;;;;;;;5.18;4.78;;;;;;;40.64;32.04;98778.16;10222110;29;20194;-82
2021/06/19 12:48:41;;;;;;;5.82;5.30;;;;;;;41.24;30.97;98779.59;10253915;29;20186;-84
2021/06/19 12:54:21;;;;;;;4.45;4.00;;;;;;;41.22;29.08;98776.56;10215532;29;20183;-82
2021/06/19 12:59:47;;;;;;;5.10;4.70;;;;;;;41.68;27.90;98776.88;10214489;29;20214;-83
2021/06/19 13:05:17;;;;;;;9.23;3.58;;;;;;;40.66;26.59;98772.53;10250707;29;20174;-82
2021/06/19 13:10:36;;;;;;;5.85;3.33;;;;;;;40.44;28.06;98776.72;10243074;29;20194;-82
2021/06/19 13:15:58;;;;;;;5.63;3.42;;;;;;;40.72;28.55;98770.09;10226387;29;20195;-82
2021/06/19 13:21:17;;;;;;;4.90;3.08;;;;;;;41.15;25.28;98765.97;10234797;29;20301;-83
2021/06/19 13:26:36;;;;;;;4.43;4.00;;;;;;;41.17;26.39;98769.00;10215738;29;20269;-83
2021/06/19 13:31:59;;;;;;;5.32;3.63;;;;;;;40.74;28.30;98758.72;10212798;29;20729;-84
2021/06/19 13:37:20;;;;;;;9.75;3.90;;;;;;;41.03;27.15;98760.09;10219804;29;20178;-84
2021/06/19 13:42:57;;;;;;;3.78;3.50;;;;;;;41.61;26.60;98752.59;10229997;29;20246;-86
2021/06/19 13:48:17;;;;;;;6.53;4.30;;;;;;;41.61;26.83;98752.59;10215716;29;20187;-85
2021/06/19 13:53:42;;;;;;;4.88;4.57;;;;;;;41.97;25.86;98755.03;10231882;29;20182;-84
2021/06/19 13:59:01;;;;;;;5.35;4.95;;;;;;;42.07;26.22;98747.78;10241648;29;20218;-85
2021/06/19 14:04:21;;;;;;;4.85;4.45;;;;;;;42.06;26.31;98745.50;10221281;29;20191;-85
2021/06/19 14:09:40;;;;;;;5.00;4.70;;;;;;;39.81;28.87;98732.34;10235172;29;20188;-85
2021/06/19 14:15:00;;;;;;;6.05;4.70;;;;;;;38.58;30.81;98734.19;10221775;29;20182;-85
2021/06/19 14:20:19;;;;;;;5.45;4.70;;;;;;;38.87;30.50;98715.69;10215655;29;20218;-85
2021/06/19 14:25:38;;;;;;;6.43;5.83;;;;;;;39.59;30.05;98715.50;10223146;29;20188;-83
2021/06/19 14:30:57;;;;;;;4.25;3.95;;;;;;;40.36;29.70;98703.28;10241712;29;20715;-84
2021/06/19 14:36:29;;;;;;;5.30;4.90;;;;;;;40.56;29.10;98707.59;10221126;29;20175;-83
2021/06/19 14:41:48;;;;;;;5.68;3.25;;;;;;;40.50;27.41;98699.28;10229884;29;20657;-83
2021/06/19 14:47:20;;;;;;;;;;;;;;;;;;;;;
2021/06/19 14:52:40;;;;;;;3.80;3.55;;;;;;;39.81;26.86;98697.00;10238706;29;20203;-84
2021/06/19 14:57:59;;;;;;;3.97;3.67;;;;;;;40.36;25.93;98683.88;10259691;29;20621;-84
2021/06/19 15:03:20;;;;;;;6.03;3.45;;;;;;;41.17;25.17;98685.28;10255556;29;20206;-83
2021/06/19 15:08:39;;;;;;;4.77;3.73;;;;;;;38.44;29.38;98678.44;10237105;29;20214;-84
2021/06/19 15:13:58;;;;;;;4.77;4.33;;;;;;;38.92;27.73;98679.38;10219923;29;20183;-84
2021/06/19 15:19:17;;;;;;;3.60;3.30;;;;;;;39.73;27.50;98674.13;10251993;29;20232;-84
2021/06/19 15:24:56;;;;;;;6.17;3.57;;;;;;;38.55;27.29;98664.25;10226006;29;20542;-84
2021/06/19 15:30:15;;;;;;;3.87;3.00;;;;;;;38.38;27.63;98660.72;10233244;29;20306;-85
2021/06/19 15:35:34;;;;;;;4.20;3.47;;;;;;;37.52;29.86;98662.31;10216849;29;20191;-83
2021/06/19 15:40:53;;;;;;;9.00;4.43;;;;;;;37.24;31.49;98658.44;10218417;29;20250;-84
2021/06/19 15:46:13;;;;;;;4.87;3.67;;;;;;;35.71;31.85;98659.28;10217159;29;20646;-84
2021/06/19 15:51:52;;;;;;;2.90;2.60;;;;;;;35.99;32.05;98649.00;10227625;29;20174;-84
2021/06/19 15:57:11;;;;;;;4.17;3.87;;;;;;;35.71;32.08;98645.72;10243836;29;20277;-84
2021/06/19 16:02:30;;;;;;;5.50;2.83;;;;;;;34.87;34.39;98640.09;10235477;29;20210;-84
2021/06/19 16:07:50;;;;;;;5.20;2.83;;;;;;;34.15;34.44;98635.38;10221408;29;20194;-88
2021/06/19 16:18:48;;;;;;;6.43;3.20;;;;;;;34.75;34.93;98638.22;10256396;29;20289;-86
2021/06/19 16:24:08;;;;;;;4.30;3.83;;;;;;;34.58;35.40;98632.34;10239555;29;20629;-88
2021/06/19 16:29:29;;;;;;;4.73;2.60;;;;;;;35.86;34.48;98606.31;10255763;29;20226;-83
2021/06/19 16:34:48;;;;;;;4.03;3.73;;;;;;;36.53;31.69;98615.75;10255079;29;20190;-84
2021/06/19 16:40:08;;;;;;;4.00;3.70;;;;;;;36.30;31.71;98610.22;10254744;29;20649;-85
2021/06/19 16:45:28;;;;;;;4.17;3.87;;;;;;;36.60;31.28;98614.91;10237209;28;20186;-83
2021/06/19 16:50:50;;;;;;;4.60;4.10;;;;;;;35.76;33.30;98607.53;10237266;29;20241;-85
2021/06/19 16:56:15;;;;;;;3.43;2.80;;;;;;;35.75;32.30;98606.03;10215427;29;20261;-84
2021/06/19 17:01:34;;;;;;;5.43;4.03;;;;;;;34.54;35.87;98609.84;10217431;29;20226;-85
2021/06/19 17:06:53;;;;;;;7.17;3.17;;;;;;;33.97;36.65;98619.34;10215394;29;20645;-85
2021/06/19 17:12:12;;;;;;;3.83;3.53;;;;;;;33.44;36.93;98609.88;10216014;29;20182;-84
2021/06/19 17:17:31;;;;;;;3.00;2.70;;;;;;;33.26;38.73;98609.44;10230925;29;20180;-86
2021/06/19 17:22:50;;;;;;;3.67;3.33;;;;;;;33.28;38.96;98586.84;10235873;29;20218;-85
2021/06/19 17:28:13;;;;;;;7.00;4.63;;;;;;;33.38;37.69;98580.03;10222086;29;20207;-84
2021/06/19 17:33:33;;;;;;;3.77;3.40;;;;;;;33.90;38.01;98565.09;10246838;29;20183;-84
2021/06/19 17:38:52;;;;;;;4.93;3.33;;;;;;;34.45;39.47;98561.09;10215406;29;20677;-85
2021/06/19 17:44:11;;;;;;;4.07;3.67;;;;;;;34.55;39.10;98559.19;10214900;29;20183;-84
2021/06/19 17:49:31;;;;;;;5.10;3.10;;;;;;;34.28;39.93;98567.41;10248080;29;20189;-84
2021/06/19 17:54:53;;;;;;;5.60;4.67;;;;;;;33.87;42.94;98551.97;10254636;29;20197;-85
2021/06/19 18:00:13;;;;;;;8.93;3.77;;;;;;;33.48;46.62;98547.50;10261563;28;20206;-87
2021/06/19 18:05:33;;;;;;;4.27;3.87;;;;;;;33.30;47.65;98540.06;10231813;29;20638;-83
2021/06/19 18:10:53;;;;;;;3.90;3.50;;;;;;;33.08;48.70;98522.88;10222071;29;20665;-84
2021/06/19 18:16:12;;;;;;;7.70;3.93;;;;;;;32.91;50.39;98507.59;10219514;29;20207;-84
2021/06/19 18:21:33;;;;;;;5.50;3.70;;;;;;;32.71;52.52;98512.06;10219830;29;20598;-83
2021/06/19 18:26:52;;;;;;;6.17;4.27;;;;;;;32.28;52.87;98501.94;10219657;29;20597;-84
2021/06/19 18:32:12;;;;;;;3.97;3.40;;;;;;;31.89;53.82;98493.66;10219036;29;20786;-86
2021/06/19 18:37:31;;;;;;;4.63;4.20;;;;;;;31.57;54.55;98496.06;10220104;29;20175;-84
2021/06/19 18:42:51;;;;;;;7.57;4.50;;;;;;;31.24;55.74;98496.84;10219262;29;20277;-84
2021/06/19 18:48:10;;;;;;;11.73;4.90;;;;;;;31.07;55.78;98484.34;10218035;29;20184;-84
2021/06/19 18:53:29;;;;;;;6.00;3.27;;;;;;;30.99;58.83;98492.00;10233478;29;20195;-83
2021/06/19 18:58:48;;;;;;;5.67;3.87;;;;;;;30.58;59.58;98488.28;10218403;29;20203;-84
2021/06/19 19:04:07;;;;;;;4.17;3.83;;;;;;;30.43;62.01;98497.34;10218282;29;20176;-84
2021/06/19 19:09:26;;;;;;;16.33;8.20;;;;;;;30.00;63.18;98510.34;10220133;29;20171;-85
2021/06/19 19:14:45;;;;;;;8.43;5.37;;;;;;;29.80;62.44;98493.16;10219390;29;20231;-82
2021/06/19 19:20:06;;;;;;;9.37;4.80;;;;;;;29.59;61.87;98504.34;10220531;29;20572;-83
2021/06/19 19:25:25;;;;;;;4.37;3.37;;;;;;;29.38;61.64;98492.06;10252058;29;20293;-83
2021/06/19 19:30:44;;;;;;;4.03;3.63;;;;;;;29.21;61.68;98477.38;10257201;29;20564;-83
2021/06/19 19:36:04;;;;;;;12.13;5.00;;;;;;;29.13;62.37;98487.03;10258425;29;20183;-85
2021/06/19 19:41:23;;;;;;;7.00;4.17;;;;;;;29.02;63.60;98503.44;10257645;29;20218;-82
2021/06/19 19:46:42;;;;;;;7.37;4.90;;;;;;;28.79;66.03;98505.81;10256749;29;20206;-84
2021/06/19 19:52:02;;;;;;;5.90;5.33;;;;;;;28.60;66.96;98493.69;10245445;29;20190;-82
2021/06/19 19:57:23;;;;;;;7.17;4.93;;;;;;;28.48;67.98;98508.53;10240778;29;20190;-83
2021/06/19 20:02:43;;;;;;;7.50;5.20;;;;;;;27.93;69.66;98499.91;10217820;29;20757;-83
2021/06/19 20:08:03;;;;;;;4.63;4.23;;;;;;;27.83;68.82;98504.38;10216302;29;20187;-85
2021/06/19 20:13:22;;;;;;;6.03;4.10;;;;;;;27.80;68.93;98528.03;10216886;29;20533;-83
2021/06/19 20:18:42;;;;;;;6.07;4.23;;;;;;;27.50;69.69;98530.06;10215438;29;20180;-83
2021/06/19 20:24:01;;;;;;;6.43;5.13;;;;;;;27.39;71.82;98526.59;10254831;28;20650;-83
2021/06/19 20:29:20;;;;;;;5.50;5.00;;;;;;;27.23;70.95;98525.41;10254359;29;20231;-85
2021/06/19 20:34:39;;;;;;;10.60;5.23;;;;;;;27.16;72.77;98545.75;10254838;29;20183;-84
2021/06/19 20:39:58;;;;;;;10.93;6.67;;;;;;;27.12;72.98;98539.63;10255399;29;20578;-86
2021/06/19 20:45:17;;;;;;;7.00;6.30;;;;;;;27.02;74.24;98527.09;10254199;29;20532;-83
2021/06/19 20:50:37;;;;;;;10.63;5.40;;;;;;;26.89;75.17;98529.72;10236939;29;20183;-84
2021/06/19 20:55:56;;;;;;;6.27;5.60;;;;;;;26.78;76.21;98534.66;10213883;29;20187;-86
2021/06/19 21:01:14;;;;;;;7.23;5.10;;;;;;;26.70;75.42;98528.00;10213629;29;20290;-85
2021/06/19 21:06:33;;;;;;;13.43;6.53;;;;;;;26.62;75.52;98538.31;10214849;29;20207;-84
2021/06/19 21:11:52;;;;;;;11.40;6.20;;;;;;;26.51;79.82;98540.41;10213537;29;20545;-83
2021/06/19 21:17:11;;;;;;;9.33;5.80;;;;;;;26.31;80.15;98521.00;10212079;29;20175;-84
2021/06/19 21:22:30;;;;;;;9.67;5.70;;;;;;;26.03;83.11;98475.97;10244765;29;20277;-84
2021/06/19 21:27:51;;;;;;;14.67;8.40;;;;;;;25.83;84.12;98467.06;10251171;29;20218;-83
2021/06/19 21:33:10;;;;;;;12.17;7.57;;;;;;;25.89;83.59;98477.03;10251480;28;20207;-85
2021/06/19 21:38:36;;;;;;;10.70;7.47;;;;;;;25.74;83.36;98495.50;10253302;29;20633;-84
2021/06/19 21:43:55;;;;;;;10.60;7.50;;;;;;;25.61;84.23;98495.22;10254549;29;20179;-84
2021/06/19 21:49:15;;;;;;;11.73;8.23;;;;;;;25.59;88.62;98494.22;10252448;29;20222;-83
2021/06/19 21:54:35;;;;;;;7.90;7.10;;;;;;;25.32;89.24;98487.34;10254970;29;20196;-85
2021/06/19 21:59:59;;;;;;;12.90;8.07;;;;;;;25.26;90.83;98480.16;10217600;29;20223;-84
2021/06/19 22:05:19;;;;;;;7.50;6.80;;;;;;;25.17;88.86;98486.81;10216991;29;20339;-83
2021/06/19 22:10:40;;;;;;;9.50;7.10;;;;;;;24.97;89.31;98477.81;10219391;29;20609;-86
2021/06/19 22:15:59;;;;;;;9.60;7.50;;;;;;;24.94;87.77;98473.19;10219215;29;20254;-82
2021/06/19 22:21:18;;;;;;;7.93;7.07;;;;;;;24.94;88.30;98459.13;10218012;29;20211;-83
2021/06/19 22:26:38;;;;;;;12.23;7.50;;;;;;;24.87;87.94;98454.00;10227792;29;20673;-84
2021/06/19 22:31:57;;;;;;;14.83;7.90;;;;;;;24.83;87.83;98441.47;10223393;29;20677;-83
2021/06/19 22:37:16;;;;;;;11.60;8.00;;;;;;;24.75;91.25;98423.56;10221980;29;20180;-83
2021/06/19 22:42:36;;;;;;;14.30;8.10;;;;;;;24.67;96.20;98416.91;10215818;29;20211;-87
2021/06/19 22:47:55;;;;;;;17.23;8.70;;;;;;;24.53;98.47;98417.91;10223362;29;20183;-85
2021/06/19 22:53:14;;;;;;;13.97;7.60;;;;;;;24.42;100.00;98412.22;10222595;29;20631;-86
2021/06/19 22:58:33;;;;;;;8.97;7.50;;;;;;;24.34;100.00;98414.00;10247286;29;20266;-87
2021/06/19 23:03:52;;;;;;;9.10;7.27;;;;;;;24.20;100.00;98417.78;10261274;29;20183;-87
2021/06/19 23:09:11;;;;;;;9.83;7.57;;;;;;;24.23;100.00;98417.53;10261239;29;20187;-86
2021/06/19 23:14:30;;;;;;;10.63;8.20;;;;;;;24.11;100.00;98406.03;10265760;29;20182;-83
2021/06/19 23:19:49;;;;;;;10.00;8.10;;;;;;;24.06;100.00;98407.53;10265122;29;20245;-84
2021/06/19 23:25:09;;;;;;;8.63;7.57;;;;;;;24.03;100.00;98402.91;10261686;29;20203;-84
2021/06/19 23:30:28;;;;;;;10.57;8.90;;;;;;;24.06;100.00;98396.28;10256513;29;20223;-83
2021/06/19 23:35:47;;;;;;;10.50;8.20;;;;;;;23.91;100.00;98404.13;10262395;29;20210;-84
2021/06/19 23:41:06;;;;;;;13.80;7.77;;;;;;;23.81;100.00;98405.63;10260058;29;20289;-85
2021/06/19 23:46:25;;;;;;;19.30;8.80;;;;;;;23.63;100.00;98397.59;10263526;29;20629;-83
2021/06/19 23:51:44;;;;;;;13.70;8.43;;;;;;;23.65;100.00;98383.84;10263023;29;20183;-86
2021/06/19 23:57:04;;;;;;;14.93;7.60;;;;;;;23.60;100.00;98376.13;10247356;28;20199;-83
